sensor_id;sensor_type;location;lat;lon;timestamp;temperature;humidity
29345;DHT22;16339;48.748;2.222;2023-08-01T00:01:04;20.60;99.90
29345;DHT22;16339;48.748;2.222;2023-08-01T00:03:33;20.70;99.90
29345;DHT22;16339;48.748;2.222;2023-08-01T00:06:02;20.80;99.90
29345;DHT22;16339;48.748;2.222;2023-08-01T00:08:31;20.80;99.90
29345;DHT22;16339;48.748;2.222;2023-08-01T00:11:00;20.80;99.90
29345;DHT22;16339;48.748;2.222;2023-08-01T00:13:28;20.80;99.90
29345;DHT22;16339;48.748;2.222;2023-08-01T00:15:57;20.70;99.90
29345;DHT22;16339;48.748;2.222;2023-08-01T00:18:31;20.50;99.90
29345;DHT22;16339;48.748;2.222;2023-08-01T00:20:59;20.50;99.90
29345;DHT22;16339;48.748;2.222;2023-08-01T00:23:28;20.60;99.90
29345;DHT22;16339;48.748;2.222;2023-08-01T00:25:57;20.50;99.90
29345;DHT22;16339;48.748;2.222;2023-08-01T00:28:29;20.60;99.90
29345;DHT22;16339;48.748;2.222;2023-08-01T00:31:07;20.80;99.90
29345;DHT22;16339;48.748;2.222;2023-08-01T00:33:39;20.70;99.90
29345;DHT22;16339;48.748;2.222;2023-08-01T00:39:04;20.90;99.90
29345;DHT22;16339;48.748;2.222;2023-08-01T00:41:32;20.90;99.90
29345;DHT22;16339;48.748;2.222;2023-08-01T00:44:01;20.80;99.90
29345;DHT22;16339;48.748;2.222;2023-08-01T00:46:32;20.70;99.90
29345;DHT22;16339;48.748;2.222;2023-08-01T00:49:03;20.80;99.90
29345;DHT22;16339;48.748;2.222;2023-08-01T00:51:34;20.80;99.90
29345;DHT22;16339;48.748;2.222;2023-08-01T00:54:03;20.80;99.90
29345;DHT22;16339;48.748;2.222;2023-08-01T00:56:32;20.70;99.90
29345;DHT22;16339;48.748;2.222;2023-08-01T00:59:01;20.60;99.90
29345;DHT22;16339;48.748;2.222;2023-08-01T01:01:29;20.60;99.90
29345;DHT22;16339;48.748;2.222;2023-08-01T01:03:58;20.30;99.90
29345;DHT22;16339;48.748;2.222;2023-08-01T01:06:33;20.40;99.90
29345;DHT22;16339;48.748;2.222;2023-08-01T01:09:04;20.50;99.90
29345;DHT22;16339;48.748;2.222;2023-08-01T01:11:42;20.40;99.90
29345;DHT22;16339;48.748;2.222;2023-08-01T01:14:11;20.60;99.90
29345;DHT22;16339;48.748;2.222;2023-08-01T01:16:40;20.70;99.90
29345;DHT22;16339;48.748;2.222;2023-08-01T01:19:09;20.70;99.90
29345;DHT22;16339;48.748;2.222;2023-08-01T01:21:41;20.90;99.90
29345;DHT22;16339;48.748;2.222;2023-08-01T01:24:12;20.70;99.90
29345;DHT22;16339;48.748;2.222;2023-08-01T01:26:41;20.50;99.90
29345;DHT22;16339;48.748;2.222;2023-08-01T01:29:11;20.60;99.90
29345;DHT22;16339;48.748;2.222;2023-08-01T01:31:40;20.60;99.90
29345;DHT22;16339;48.748;2.222;2023-08-01T01:34:09;20.20;99.90
29345;DHT22;16339;48.748;2.222;2023-08-01T01:36:41;20.40;99.90
29345;DHT22;16339;48.748;2.222;2023-08-01T01:39:09;20.20;99.90
29345;DHT22;16339;48.748;2.222;2023-08-01T01:41:38;20.40;99.90
29345;DHT22;16339;48.748;2.222;2023-08-01T01:44:07;20.40;99.90
29345;DHT22;16339;48.748;2.222;2023-08-01T01:46:35;20.50;99.90
29345;DHT22;16339;48.748;2.222;2023-08-01T01:49:04;20.60;99.90
29345;DHT22;16339;48.748;2.222;2023-08-01T01:51:33;20.40;99.90
29345;DHT22;16339;48.748;2.222;2023-08-01T01:54:04;20.70;99.90
29345;DHT22;16339;48.748;2.222;2023-08-01T01:56:33;20.60;99.90
29345;DHT22;16339;48.748;2.222;2023-08-01T01:59:01;20.60;99.90
29345;DHT22;16339;48.748;2.222;2023-08-01T02:01:30;20.60;99.90
29345;DHT22;16339;48.748;2.222;2023-08-01T02:03:59;20.60;99.90
29345;DHT22;16339;48.748;2.222;2023-08-01T02:06:28;20.70;99.90
29345;DHT22;16339;48.748;2.222;2023-08-01T02:08:56;20.50;99.90
29345;DHT22;16339;48.748;2.222;2023-08-01T02:11:28;20.40;99.90
29345;DHT22;16339;48.748;2.222;2023-08-01T02:13:56;20.10;99.90
29345;DHT22;16339;48.748;2.222;2023-08-01T02:16:25;20.00;99.90
29345;DHT22;16339;48.748;2.222;2023-08-01T02:18:54;19.90;99.90
29345;DHT22;16339;48.748;2.222;2023-08-01T02:21:22;20.00;99.90
29345;DHT22;16339;48.748;2.222;2023-08-01T02:23:53;20.10;99.90
29345;DHT22;16339;48.748;2.222;2023-08-01T02:26:22;20.10;99.90
29345;DHT22;16339;48.748;2.222;2023-08-01T02:28:53;19.80;99.90
29345;DHT22;16339;48.748;2.222;2023-08-01T02:31:22;19.90;99.90
29345;DHT22;16339;48.748;2.222;2023-08-01T02:33:51;19.90;99.90
29345;DHT22;16339;48.748;2.222;2023-08-01T02:36:20;19.80;99.90
29345;DHT22;16339;48.748;2.222;2023-08-01T02:38:48;19.80;99.90
29345;DHT22;16339;48.748;2.222;2023-08-01T02:41:17;19.80;99.90
29345;DHT22;16339;48.748;2.222;2023-08-01T02:43:46;19.80;99.90
29345;DHT22;16339;48.748;2.222;2023-08-01T02:46:18;19.80;99.90
29345;DHT22;16339;48.748;2.222;2023-08-01T02:48:48;19.70;99.90
29345;DHT22;16339;48.748;2.222;2023-08-01T02:51:17;19.90;99.90
29345;DHT22;16339;48.748;2.222;2023-08-01T02:53:46;19.90;99.90
29345;DHT22;16339;48.748;2.222;2023-08-01T02:56:14;19.90;99.90
29345;DHT22;16339;48.748;2.222;2023-08-01T02:58:43;19.80;99.90
29345;DHT22;16339;48.748;2.222;2023-08-01T03:01:12;19.40;99.90
29345;DHT22;16339;48.748;2.222;2023-08-01T03:03:44;19.60;99.90
29345;DHT22;16339;48.748;2.222;2023-08-01T03:06:12;19.60;99.90
29345;DHT22;16339;48.748;2.222;2023-08-01T03:08:44;19.80;99.90
29345;DHT22;16339;48.748;2.222;2023-08-01T03:11:13;19.80;99.90
29345;DHT22;16339;48.748;2.222;2023-08-01T03:13:42;19.70;99.90
29345;DHT22;16339;48.748;2.222;2023-08-01T03:16:10;19.60;99.90
29345;DHT22;16339;48.748;2.222;2023-08-01T03:18:39;19.50;99.90
29345;DHT22;16339;48.748;2.222;2023-08-01T03:21:11;19.40;99.90
29345;DHT22;16339;48.748;2.222;2023-08-01T03:23:40;19.40;99.90
29345;DHT22;16339;48.748;2.222;2023-08-01T03:26:08;19.50;99.90
29345;DHT22;16339;48.748;2.222;2023-08-01T03:28:37;19.20;99.90
29345;DHT22;16339;48.748;2.222;2023-08-01T03:31:09;19.20;99.90
29345;DHT22;16339;48.748;2.222;2023-08-01T03:33:37;19.20;99.90
29345;DHT22;16339;48.748;2.222;2023-08-01T03:36:10;19.20;99.90
29345;DHT22;16339;48.748;2.222;2023-08-01T03:38:39;19.10;99.90
29345;DHT22;16339;48.748;2.222;2023-08-01T03:41:09;19.20;99.90
29345;DHT22;16339;48.748;2.222;2023-08-01T03:43:37;18.90;99.90
29345;DHT22;16339;48.748;2.222;2023-08-01T03:46:07;18.90;99.90
29345;DHT22;16339;48.748;2.222;2023-08-01T03:48:36;18.90;99.90
29345;DHT22;16339;48.748;2.222;2023-08-01T03:51:05;18.70;99.90
29345;DHT22;16339;48.748;2.222;2023-08-01T03:53:36;18.80;99.90
29345;DHT22;16339;48.748;2.222;2023-08-01T03:56:05;18.80;99.90
29345;DHT22;16339;48.748;2.222;2023-08-01T03:58:34;18.90;99.90
29345;DHT22;16339;48.748;2.222;2023-08-01T04:01:02;18.90;99.90
29345;DHT22;16339;48.748;2.222;2023-08-01T04:03:32;19.00;99.90
29345;DHT22;16339;48.748;2.222;2023-08-01T04:06:00;18.90;99.90
29345;DHT22;16339;48.748;2.222;2023-08-01T04:08:31;19.00;99.90
29345;DHT22;16339;48.748;2.222;2023-08-01T04:11:02;19.10;99.90
29345;DHT22;16339;48.748;2.222;2023-08-01T04:13:31;19.10;99.90
29345;DHT22;16339;48.748;2.222;2023-08-01T04:16:00;19.10;99.90
29345;DHT22;16339;48.748;2.222;2023-08-01T04:18:31;19.00;99.90
29345;DHT22;16339;48.748;2.222;2023-08-01T04:20:59;19.00;99.90
29345;DHT22;16339;48.748;2.222;2023-08-01T04:23:28;18.90;99.90
29345;DHT22;16339;48.748;2.222;2023-08-01T04:26:02;18.80;99.90
29345;DHT22;16339;48.748;2.222;2023-08-01T04:28:31;18.90;99.90
29345;DHT22;16339;48.748;2.222;2023-08-01T04:31:00;19.00;99.90
29345;DHT22;16339;48.748;2.222;2023-08-01T04:33:29;19.00;99.90
29345;DHT22;16339;48.748;2.222;2023-08-01T04:35:58;19.00;99.90
29345;DHT22;16339;48.748;2.222;2023-08-01T04:38:28;18.80;99.90
29345;DHT22;16339;48.748;2.222;2023-08-01T04:40:57;18.90;99.90
29345;DHT22;16339;48.748;2.222;2023-08-01T04:43:31;18.70;99.80
29345;DHT22;16339;48.748;2.222;2023-08-01T04:45:59;18.60;99.70
29345;DHT22;16339;48.748;2.222;2023-08-01T04:48:31;18.60;99.80
29345;DHT22;16339;48.748;2.222;2023-08-01T04:51:03;18.60;99.70
29345;DHT22;16339;48.748;2.222;2023-08-01T04:53:31;18.50;99.40
29345;DHT22;16339;48.748;2.222;2023-08-01T04:56:00;18.50;99.40
29345;DHT22;16339;48.748;2.222;2023-08-01T04:58:32;18.50;99.40
29345;DHT22;16339;48.748;2.222;2023-08-01T05:01:00;18.50;99.30
29345;DHT22;16339;48.748;2.222;2023-08-01T05:03:29;18.30;99.60
29345;DHT22;16339;48.748;2.222;2023-08-01T05:05:58;18.40;99.70
29345;DHT22;16339;48.748;2.222;2023-08-01T05:08:27;18.50;99.50
29345;DHT22;16339;48.748;2.222;2023-08-01T05:10:55;18.40;99.40
29345;DHT22;16339;48.748;2.222;2023-08-01T05:13:24;18.50;99.50
29345;DHT22;16339;48.748;2.222;2023-08-01T05:15:57;18.70;99.60
29345;DHT22;16339;48.748;2.222;2023-08-01T05:18:25;18.80;99.50
29345;DHT22;16339;48.748;2.222;2023-08-01T05:20:56;18.90;99.40
29345;DHT22;16339;48.748;2.222;2023-08-01T05:23:24;18.90;99.10
29345;DHT22;16339;48.748;2.222;2023-08-01T05:25:53;18.90;99.20
29345;DHT22;16339;48.748;2.222;2023-08-01T05:28:22;19.00;99.30
29345;DHT22;16339;48.748;2.222;2023-08-01T05:30:51;19.00;98.90
29345;DHT22;16339;48.748;2.222;2023-08-01T05:33:22;19.00;98.60
29345;DHT22;16339;48.748;2.222;2023-08-01T05:35:51;19.00;98.70
29345;DHT22;16339;48.748;2.222;2023-08-01T05:38:19;19.00;98.70
29345;DHT22;16339;48.748;2.222;2023-08-01T05:40:48;19.10;99.20
29345;DHT22;16339;48.748;2.222;2023-08-01T05:43:17;19.10;98.50
29345;DHT22;16339;48.748;2.222;2023-08-01T05:45:46;19.20;98.60
29345;DHT22;16339;48.748;2.222;2023-08-01T05:48:16;19.20;98.10
29345;DHT22;16339;48.748;2.222;2023-08-01T05:50:47;19.20;98.40
29345;DHT22;16339;48.748;2.222;2023-08-01T05:53:16;19.00;97.80
29345;DHT22;16339;48.748;2.222;2023-08-01T05:55:44;19.00;97.40
29345;DHT22;16339;48.748;2.222;2023-08-01T05:58:13;18.90;97.80
29345;DHT22;16339;48.748;2.222;2023-08-01T06:00:42;19.20;98.50
29345;DHT22;16339;48.748;2.222;2023-08-01T06:03:11;19.00;97.60
29345;DHT22;16339;48.748;2.222;2023-08-01T06:05:40;18.90;97.60
29345;DHT22;16339;48.748;2.222;2023-08-01T06:08:11;18.90;97.40
29345;DHT22;16339;48.748;2.222;2023-08-01T06:10:41;18.80;97.10
29345;DHT22;16339;48.748;2.222;2023-08-01T06:13:10;18.90;97.60
29345;DHT22;16339;48.748;2.222;2023-08-01T06:15:39;19.00;97.80
29345;DHT22;16339;48.748;2.222;2023-08-01T06:18:08;18.80;97.30
29345;DHT22;16339;48.748;2.222;2023-08-01T06:20:37;19.00;97.30
29345;DHT22;16339;48.748;2.222;2023-08-01T06:23:07;19.00;96.90
29345;DHT22;16339;48.748;2.222;2023-08-01T06:25:38;19.00;96.90
29345;DHT22;16339;48.748;2.222;2023-08-01T06:28:08;18.90;96.50
29345;DHT22;16339;48.748;2.222;2023-08-01T06:30:37;18.90;96.50
29345;DHT22;16339;48.748;2.222;2023-08-01T06:33:06;18.90;96.60
29345;DHT22;16339;48.748;2.222;2023-08-01T06:35:35;18.90;96.60
29345;DHT22;16339;48.748;2.222;2023-08-01T06:38:03;18.90;97.00
29345;DHT22;16339;48.748;2.222;2023-08-01T06:40:32;18.90;96.70
29345;DHT22;16339;48.748;2.222;2023-08-01T06:43:03;19.00;96.70
29345;DHT22;16339;48.748;2.222;2023-08-01T06:45:32;19.20;96.70
29345;DHT22;16339;48.748;2.222;2023-08-01T06:48:01;19.10;96.20
29345;DHT22;16339;48.748;2.222;2023-08-01T06:50:30;19.10;96.30
29345;DHT22;16339;48.748;2.222;2023-08-01T06:52:58;19.00;96.20
29345;DHT22;16339;48.748;2.222;2023-08-01T06:55:28;19.00;96.30
29345;DHT22;16339;48.748;2.222;2023-08-01T06:57:57;19.00;96.40
29345;DHT22;16339;48.748;2.222;2023-08-01T07:00:29;19.10;96.00
29345;DHT22;16339;48.748;2.222;2023-08-01T07:02:57;19.20;96.20
29345;DHT22;16339;48.748;2.222;2023-08-01T07:05:26;19.20;95.70
29345;DHT22;16339;48.748;2.222;2023-08-01T07:07:55;19.40;95.80
29345;DHT22;16339;48.748;2.222;2023-08-01T07:10:25;19.40;95.10
29345;DHT22;16339;48.748;2.222;2023-08-01T07:12:54;19.20;95.20
29345;DHT22;16339;48.748;2.222;2023-08-01T07:15:23;19.40;95.30
29345;DHT22;16339;48.748;2.222;2023-08-01T07:17:55;19.40;94.80
29345;DHT22;16339;48.748;2.222;2023-08-01T07:20:23;19.60;95.10
29345;DHT22;16339;48.748;2.222;2023-08-01T07:22:52;19.40;95.10
29345;DHT22;16339;48.748;2.222;2023-08-01T07:25:21;19.30;95.20
29345;DHT22;16339;48.748;2.222;2023-08-01T07:27:51;19.60;95.10
29345;DHT22;16339;48.748;2.222;2023-08-01T07:30:19;19.60;94.50
29345;DHT22;16339;48.748;2.222;2023-08-01T07:32:48;19.60;94.50
29345;DHT22;16339;48.748;2.222;2023-08-01T07:35:19;19.70;94.70
29345;DHT22;16339;48.748;2.222;2023-08-01T07:37:48;19.50;94.80
29345;DHT22;16339;48.748;2.222;2023-08-01T07:40:17;19.60;94.60
29345;DHT22;16339;48.748;2.222;2023-08-01T07:42:45;19.80;94.30
29345;DHT22;16339;48.748;2.222;2023-08-01T07:45:14;19.80;94.30
29345;DHT22;16339;48.748;2.222;2023-08-01T07:47:56;19.90;94.30
29345;DHT22;16339;48.748;2.222;2023-08-01T07:50:28;19.90;94.10
29345;DHT22;16339;48.748;2.222;2023-08-01T07:52:57;19.90;94.30
29345;DHT22;16339;48.748;2.222;2023-08-01T07:55:26;19.80;93.90
29345;DHT22;16339;48.748;2.222;2023-08-01T07:57:55;19.70;94.30
29345;DHT22;16339;48.748;2.222;2023-08-01T08:00:30;19.60;94.60
29345;DHT22;16339;48.748;2.222;2023-08-01T08:03:00;19.60;94.00
29345;DHT22;16339;48.748;2.222;2023-08-01T08:05:32;19.70;94.00
29345;DHT22;16339;48.748;2.222;2023-08-01T08:08:08;19.90;94.20
29345;DHT22;16339;48.748;2.222;2023-08-01T08:10:40;19.80;93.40
29345;DHT22;16339;48.748;2.222;2023-08-01T08:13:09;19.90;94.00
29345;DHT22;16339;48.748;2.222;2023-08-01T08:15:39;19.90;93.70
29345;DHT22;16339;48.748;2.222;2023-08-01T08:18:08;20.10;93.60
29345;DHT22;16339;48.748;2.222;2023-08-01T08:20:44;20.10;92.70
29345;DHT22;16339;48.748;2.222;2023-08-01T08:23:35;20.00;92.70
29345;DHT22;16339;48.748;2.222;2023-08-01T08:32:27;20.20;93.00
29345;DHT22;16339;48.748;2.222;2023-08-01T08:35:48;20.30;92.90
29345;DHT22;16339;48.748;2.222;2023-08-01T08:41:26;20.20;93.00
29345;DHT22;16339;48.748;2.222;2023-08-01T08:47:55;20.40;92.70
29345;DHT22;16339;48.748;2.222;2023-08-01T08:50:26;20.60;92.20
29345;DHT22;16339;48.748;2.222;2023-08-01T08:52:56;20.60;92.20
29345;DHT22;16339;48.748;2.222;2023-08-01T08:55:28;20.50;91.40
29345;DHT22;16339;48.748;2.222;2023-08-01T08:58:32;20.40;91.80
29345;DHT22;16339;48.748;2.222;2023-08-01T09:02:10;20.40;92.10
29345;DHT22;16339;48.748;2.222;2023-08-01T09:04:47;20.40;92.00
29345;DHT22;16339;48.748;2.222;2023-08-01T09:07:30;20.30;91.90
29345;DHT22;16339;48.748;2.222;2023-08-01T09:10:02;20.40;91.90
29345;DHT22;16339;48.748;2.222;2023-08-01T09:15:20;20.40;91.90
29345;DHT22;16339;48.748;2.222;2023-08-01T09:17:50;20.60;91.80
29345;DHT22;16339;48.748;2.222;2023-08-01T09:20:36;20.60;91.50
29345;DHT22;16339;48.748;2.222;2023-08-01T09:30:15;20.70;91.30
29345;DHT22;16339;48.748;2.222;2023-08-01T09:32:56;21.00;91.60
29345;DHT22;16339;48.748;2.222;2023-08-01T09:35:39;21.10;91.30
29345;DHT22;16339;48.748;2.222;2023-08-01T09:44:28;21.10;90.60
29345;DHT22;16339;48.748;2.222;2023-08-01T09:47:12;21.20;90.50
29345;DHT22;16339;48.748;2.222;2023-08-01T09:49:52;21.10;90.30
29345;DHT22;16339;48.748;2.222;2023-08-01T09:52:27;21.00;90.30
29345;DHT22;16339;48.748;2.222;2023-08-01T09:54:56;20.80;90.90
29345;DHT22;16339;48.748;2.222;2023-08-01T09:57:28;20.90;90.40
29345;DHT22;16339;48.748;2.222;2023-08-01T09:59:58;21.10;90.50
29345;DHT22;16339;48.748;2.222;2023-08-01T10:02:30;21.00;88.70
29345;DHT22;16339;48.748;2.222;2023-08-01T10:05:06;21.10;89.00
29345;DHT22;16339;48.748;2.222;2023-08-01T10:07:38;21.20;89.90
29345;DHT22;16339;48.748;2.222;2023-08-01T10:10:12;21.20;90.30
29345;DHT22;16339;48.748;2.222;2023-08-01T10:12:50;21.40;87.50
29345;DHT22;16339;48.748;2.222;2023-08-01T10:15:20;21.40;87.70
29345;DHT22;16339;48.748;2.222;2023-08-01T10:17:49;21.40;87.20
29345;DHT22;16339;48.748;2.222;2023-08-01T10:20:21;21.20;87.50
29345;DHT22;16339;48.748;2.222;2023-08-01T10:22:52;21.20;87.40
29345;DHT22;16339;48.748;2.222;2023-08-01T10:25:23;21.20;87.50
29345;DHT22;16339;48.748;2.222;2023-08-01T10:27:59;21.40;88.00
29345;DHT22;16339;48.748;2.222;2023-08-01T10:30:29;21.60;86.90
29345;DHT22;16339;48.748;2.222;2023-08-01T10:32:59;21.70;85.20
29345;DHT22;16339;48.748;2.222;2023-08-01T10:35:38;21.60;84.10
29345;DHT22;16339;48.748;2.222;2023-08-01T10:38:11;21.80;84.80
29345;DHT22;16339;48.748;2.222;2023-08-01T10:40:46;21.90;84.80
29345;DHT22;16339;48.748;2.222;2023-08-01T10:43:21;21.80;84.10
29345;DHT22;16339;48.748;2.222;2023-08-01T10:46:00;21.90;84.10
29345;DHT22;16339;48.748;2.222;2023-08-01T10:51:22;21.90;84.40
29345;DHT22;16339;48.748;2.222;2023-08-01T10:53:50;22.20;83.00
29345;DHT22;16339;48.748;2.222;2023-08-01T10:56:20;22.20;83.10
29345;DHT22;16339;48.748;2.222;2023-08-01T10:58:49;22.30;81.20
29345;DHT22;16339;48.748;2.222;2023-08-01T11:01:18;22.30;80.20
29345;DHT22;16339;48.748;2.222;2023-08-01T11:03:47;22.30;79.60
29345;DHT22;16339;48.748;2.222;2023-08-01T11:06:16;22.30;79.50
29345;DHT22;16339;48.748;2.222;2023-08-01T11:08:47;22.30;78.80
29345;DHT22;16339;48.748;2.222;2023-08-01T11:11:16;22.20;79.00
29345;DHT22;16339;48.748;2.222;2023-08-01T11:13:50;22.10;78.60
29345;DHT22;16339;48.748;2.222;2023-08-01T11:16:22;22.20;80.30
29345;DHT22;16339;48.748;2.222;2023-08-01T11:18:51;22.30;80.80
29345;DHT22;16339;48.748;2.222;2023-08-01T11:21:26;22.50;80.00
29345;DHT22;16339;48.748;2.222;2023-08-01T11:23:59;22.60;80.20
29345;DHT22;16339;48.748;2.222;2023-08-01T11:26:28;22.60;80.20
29345;DHT22;16339;48.748;2.222;2023-08-01T11:29:01;22.50;78.70
29345;DHT22;16339;48.748;2.222;2023-08-01T11:31:31;22.40;78.40
29345;DHT22;16339;48.748;2.222;2023-08-01T11:34:10;22.60;79.70
29345;DHT22;16339;48.748;2.222;2023-08-01T11:36:39;22.70;79.20
29345;DHT22;16339;48.748;2.222;2023-08-01T11:42:35;22.60;81.30
29345;DHT22;16339;48.748;2.222;2023-08-01T11:45:11;22.60;82.20
29345;DHT22;16339;48.748;2.222;2023-08-01T11:47:50;22.70;82.80
29345;DHT22;16339;48.748;2.222;2023-08-01T11:58:49;22.60;83.30
29345;DHT22;16339;48.748;2.222;2023-08-01T12:00:27;22.80;83.60
29345;DHT22;16339;48.748;2.222;2023-08-01T12:19:47;23.30;78.30
29345;DHT22;16339;48.748;2.222;2023-08-01T12:31:18;23.20;77.60
29345;DHT22;16339;48.748;2.222;2023-08-01T12:33:48;23.20;77.20
29345;DHT22;16339;48.748;2.222;2023-08-01T12:52:28;23.40;78.80
29345;DHT22;16339;48.748;2.222;2023-08-01T12:55:07;23.30;78.60
29345;DHT22;16339;48.748;2.222;2023-08-01T12:57:59;23.20;79.80
29345;DHT22;16339;48.748;2.222;2023-08-01T13:03:48;23.20;82.60
29345;DHT22;16339;48.748;2.222;2023-08-01T13:06:16;23.10;84.50
29345;DHT22;16339;48.748;2.222;2023-08-01T13:08:48;22.80;89.20
29345;DHT22;16339;48.748;2.222;2023-08-01T13:11:16;22.40;91.10
29345;DHT22;16339;48.748;2.222;2023-08-01T13:13:45;22.40;91.70
29345;DHT22;16339;48.748;2.222;2023-08-01T13:16:14;22.30;91.50
29345;DHT22;16339;48.748;2.222;2023-08-01T13:18:43;22.20;92.10
29345;DHT22;16339;48.748;2.222;2023-08-01T13:21:14;22.40;92.30
29345;DHT22;16339;48.748;2.222;2023-08-01T13:23:42;22.50;92.60
29345;DHT22;16339;48.748;2.222;2023-08-01T13:26:14;22.60;92.50
29345;DHT22;16339;48.748;2.222;2023-08-01T13:35:10;23.10;90.60
29345;DHT22;16339;48.748;2.222;2023-08-01T13:37:39;23.30;90.40
29345;DHT22;16339;48.748;2.222;2023-08-01T13:40:11;23.30;90.00
29345;DHT22;16339;48.748;2.222;2023-08-01T13:42:44;23.60;89.80
29345;DHT22;16339;48.748;2.222;2023-08-01T13:45:19;23.50;87.00
29345;DHT22;16339;48.748;2.222;2023-08-01T13:47:47;23.60;85.20
29345;DHT22;16339;48.748;2.222;2023-08-01T13:50:18;23.60;85.30
29345;DHT22;16339;48.748;2.222;2023-08-01T13:56:22;24.00;84.00
29345;DHT22;16339;48.748;2.222;2023-08-01T13:59:06;23.90;81.20
29345;DHT22;16339;48.748;2.222;2023-08-01T14:04:45;24.10;80.20
29345;DHT22;16339;48.748;2.222;2023-08-01T14:07:27;24.10;79.90
29345;DHT22;16339;48.748;2.222;2023-08-01T14:10:49;24.20;79.50
29345;DHT22;16339;48.748;2.222;2023-08-01T14:13:30;24.20;80.20
29345;DHT22;16339;48.748;2.222;2023-08-01T14:16:15;24.30;79.70
29345;DHT22;16339;48.748;2.222;2023-08-01T14:18:53;24.40;78.50
29345;DHT22;16339;48.748;2.222;2023-08-01T14:21:35;24.30;78.90
29345;DHT22;16339;48.748;2.222;2023-08-01T14:27:19;24.20;79.80
29345;DHT22;16339;48.748;2.222;2023-08-01T14:29:50;24.10;79.70
29345;DHT22;16339;48.748;2.222;2023-08-01T14:32:22;24.20;80.30
29345;DHT22;16339;48.748;2.222;2023-08-01T14:34:51;24.10;79.10
29345;DHT22;16339;48.748;2.222;2023-08-01T14:38:30;24.10;78.30
29345;DHT22;16339;48.748;2.222;2023-08-01T14:40:40;24.10;78.40
29345;DHT22;16339;48.748;2.222;2023-08-01T14:58:31;23.80;81.20
29345;DHT22;16339;48.748;2.222;2023-08-01T15:01:36;23.70;81.50
29345;DHT22;16339;48.748;2.222;2023-08-01T15:04:06;23.70;83.20
29345;DHT22;16339;48.748;2.222;2023-08-01T15:06:39;23.60;83.60
29345;DHT22;16339;48.748;2.222;2023-08-01T15:09:11;23.60;83.70
29345;DHT22;16339;48.748;2.222;2023-08-01T15:11:40;23.50;83.80
29345;DHT22;16339;48.748;2.222;2023-08-01T15:14:12;23.50;83.50
29345;DHT22;16339;48.748;2.222;2023-08-01T15:16:43;23.60;83.90
29345;DHT22;16339;48.748;2.222;2023-08-01T15:25:10;23.50;82.10
29345;DHT22;16339;48.748;2.222;2023-08-01T15:27:46;23.40;82.20
29345;DHT22;16339;48.748;2.222;2023-08-01T15:30:25;23.50;82.70
29345;DHT22;16339;48.748;2.222;2023-08-01T15:35:35;23.60;81.90
29345;DHT22;16339;48.748;2.222;2023-08-01T15:38:04;23.70;81.30
29345;DHT22;16339;48.748;2.222;2023-08-01T15:40:52;23.80;80.20
29345;DHT22;16339;48.748;2.222;2023-08-01T15:43:34;24.10;80.20
29345;DHT22;16339;48.748;2.222;2023-08-01T15:46:07;24.10;79.40
29345;DHT22;16339;48.748;2.222;2023-08-01T15:49:00;24.30;79.40
29345;DHT22;16339;48.748;2.222;2023-08-01T15:51:33;24.30;79.30
29345;DHT22;16339;48.748;2.222;2023-08-01T15:57:18;24.80;78.50
29345;DHT22;16339;48.748;2.222;2023-08-01T16:00:03;25.40;74.90
29345;DHT22;16339;48.748;2.222;2023-08-01T16:02:36;26.10;73.60
29345;DHT22;16339;48.748;2.222;2023-08-01T16:05:10;26.80;70.50
29345;DHT22;16339;48.748;2.222;2023-08-01T16:07:41;27.00;70.10
29345;DHT22;16339;48.748;2.222;2023-08-01T16:10:10;27.40;68.50
29345;DHT22;16339;48.748;2.222;2023-08-01T16:12:38;27.90;68.00
29345;DHT22;16339;48.748;2.222;2023-08-01T16:15:08;28.20;65.80
29345;DHT22;16339;48.748;2.222;2023-08-01T16:17:43;27.60;66.10
29345;DHT22;16339;48.748;2.222;2023-08-01T16:26:36;25.90;69.30
29345;DHT22;16339;48.748;2.222;2023-08-01T16:29:08;25.30;71.00
29345;DHT22;16339;48.748;2.222;2023-08-01T16:31:37;25.00;72.70
29345;DHT22;16339;48.748;2.222;2023-08-01T16:34:09;24.60;74.10
29345;DHT22;16339;48.748;2.222;2023-08-01T16:36:38;24.50;75.10
29345;DHT22;16339;48.748;2.222;2023-08-01T17:19:42;29.80;59.50
29345;DHT22;16339;48.748;2.222;2023-08-01T17:22:19;28.90;61.20
29345;DHT22;16339;48.748;2.222;2023-08-01T17:49:01;25.80;71.20
29345;DHT22;16339;48.748;2.222;2023-08-01T18:01:11;26.70;69.80
29345;DHT22;16339;48.748;2.222;2023-08-01T18:03:45;26.80;69.30
29345;DHT22;16339;48.748;2.222;2023-08-01T18:06:20;26.50;70.20
29345;DHT22;16339;48.748;2.222;2023-08-01T18:09:11;26.00;72.00
29345;DHT22;16339;48.748;2.222;2023-08-01T18:11:53;25.70;72.70
29345;DHT22;16339;48.748;2.222;2023-08-01T18:14:57;25.30;74.40
29345;DHT22;16339;48.748;2.222;2023-08-01T18:21:28;24.10;78.50
29345;DHT22;16339;48.748;2.222;2023-08-01T18:24:02;23.90;79.40
29345;DHT22;16339;48.748;2.222;2023-08-01T21:41:52;22.20;91.10
29345;DHT22;16339;48.748;2.222;2023-08-01T21:44:26;22.20;91.80
29345;DHT22;16339;48.748;2.222;2023-08-01T21:47:00;22.30;91.90
29345;DHT22;16339;48.748;2.222;2023-08-01T21:49:29;22.30;92.00
29345;DHT22;16339;48.748;2.222;2023-08-01T21:52:01;22.20;92.00
29345;DHT22;16339;48.748;2.222;2023-08-01T21:54:37;22.20;92.20
29345;DHT22;16339;48.748;2.222;2023-08-01T21:57:08;22.10;92.30
29345;DHT22;16339;48.748;2.222;2023-08-01T21:59:37;22.00;92.40
29345;DHT22;16339;48.748;2.222;2023-08-01T22:15:31;22.10;92.80
29345;DHT22;16339;48.748;2.222;2023-08-01T22:20:58;22.00;92.80
29345;DHT22;16339;48.748;2.222;2023-08-01T22:23:33;22.00;93.00
29345;DHT22;16339;48.748;2.222;2023-08-01T22:26:02;22.00;93.30
29345;DHT22;16339;48.748;2.222;2023-08-01T22:28:37;22.10;93.00
29345;DHT22;16339;48.748;2.222;2023-08-01T22:31:08;22.10;93.20
29345;DHT22;16339;48.748;2.222;2023-08-01T22:33:37;22.10;93.30
29345;DHT22;16339;48.748;2.222;2023-08-01T22:36:12;22.10;93.20
29345;DHT22;16339;48.748;2.222;2023-08-01T22:38:44;22.10;93.30
29345;DHT22;16339;48.748;2.222;2023-08-01T22:41:18;22.20;93.50
29345;DHT22;16339;48.748;2.222;2023-08-01T22:43:59;22.20;93.60
29345;DHT22;16339;48.748;2.222;2023-08-01T22:46:34;22.10;93.60
29345;DHT22;16339;48.748;2.222;2023-08-01T22:49:06;22.20;93.80
29345;DHT22;16339;48.748;2.222;2023-08-01T22:51:40;22.20;93.90
29345;DHT22;16339;48.748;2.222;2023-08-01T22:54:11;22.20;93.80
29345;DHT22;16339;48.748;2.222;2023-08-01T22:56:55;22.10;93.90
29345;DHT22;16339;48.748;2.222;2023-08-01T22:59:24;22.10;94.00
29345;DHT22;16339;48.748;2.222;2023-08-01T23:02:28;22.00;94.10
29345;DHT22;16339;48.748;2.222;2023-08-01T23:05:15;22.00;94.40
29345;DHT22;16339;48.748;2.222;2023-08-01T23:07:44;22.10;94.60
29345;DHT22;16339;48.748;2.222;2023-08-01T23:10:13;22.00;94.60
29345;DHT22;16339;48.748;2.222;2023-08-01T23:12:47;22.00;94.70